sensor_id;sensor_type;location;lat;lon;timestamp;P1;durP1;ratioP1;P2;durP2;ratioP2
5357;SDS011;2702;51.014;7.170;2022-10-17T00:01:54;6.67;;;6.00;;
5357;SDS011;2702;51.014;7.170;2022-10-17T00:04:20;7.57;;;5.77;;
5357;SDS011;2702;51.014;7.170;2022-10-17T00:06:46;10.50;;;5.60;;
5357;SDS011;2702;51.014;7.170;2022-10-17T00:09:12;9.40;;;5.33;;
5357;SDS011;2702;51.014;7.170;2022-10-17T00:11:38;6.33;;;5.77;;
5357;SDS011;2702;51.014;7.170;2022-10-17T00:14:04;6.10;;;5.50;;
5357;SDS011;2702;51.014;7.170;2022-10-17T00:16:31;5.70;;;5.23;;
5357;SDS011;2702;51.014;7.170;2022-10-17T00:19:00;6.10;;;5.60;;
5357;SDS011;2702;51.014;7.170;2022-10-17T00:21:27;6.80;;;6.07;;
5357;SDS011;2702;51.014;7.170;2022-10-17T00:23:53;5.10;;;4.70;;
5357;SDS011;2702;51.014;7.170;2022-10-17T00:26:19;5.70;;;5.30;;
5357;SDS011;2702;51.014;7.170;2022-10-17T00:28:47;5.97;;;5.50;;
5357;SDS011;2702;51.014;7.170;2022-10-17T00:31:14;6.67;;;5.60;;
5357;SDS011;2702;51.014;7.170;2022-10-17T00:33:42;7.53;;;5.53;;
5357;SDS011;2702;51.014;7.170;2022-10-17T00:36:10;9.03;;;5.93;;
5357;SDS011;2702;51.014;7.170;2022-10-17T00:38:40;6.03;;;5.53;;
5357;SDS011;2702;51.014;7.170;2022-10-17T00:41:09;6.60;;;5.23;;
5357;SDS011;2702;51.014;7.170;2022-10-17T00:43:55;7.20;;;5.70;;
5357;SDS011;2702;51.014;7.170;2022-10-17T00:46:33;5.40;;;4.90;;
5357;SDS011;2702;51.014;7.170;2022-10-17T00:49:05;5.97;;;5.37;;
5357;SDS011;2702;51.014;7.170;2022-10-17T00:51:33;6.10;;;5.60;;
5357;SDS011;2702;51.014;7.170;2022-10-17T00:54:05;5.67;;;5.23;;
5357;SDS011;2702;51.014;7.170;2022-10-17T00:56:31;6.90;;;5.37;;
5357;SDS011;2702;51.014;7.170;2022-10-17T00:58:58;5.27;;;4.73;;
5357;SDS011;2702;51.014;7.170;2022-10-17T01:01:24;5.47;;;4.90;;
5357;SDS011;2702;51.014;7.170;2022-10-17T01:03:50;5.83;;;5.13;;
5357;SDS011;2702;51.014;7.170;2022-10-17T01:06:16;6.00;;;5.40;;
5357;SDS011;2702;51.014;7.170;2022-10-17T01:08:41;11.00;;;4.63;;
5357;SDS011;2702;51.014;7.170;2022-10-17T01:11:12;6.50;;;5.00;;
5357;SDS011;2702;51.014;7.170;2022-10-17T01:13:48;5.67;;;5.17;;
5357;SDS011;2702;51.014;7.170;2022-10-17T01:16:25;6.20;;;5.57;;
5357;SDS011;2702;51.014;7.170;2022-10-17T01:22:08;5.33;;;4.83;;
5357;SDS011;2702;51.014;7.170;2022-10-17T01:24:46;6.00;;;5.07;;
5357;SDS011;2702;51.014;7.170;2022-10-17T01:27:31;6.07;;;5.40;;
5357;SDS011;2702;51.014;7.170;2022-10-17T01:33:10;7.33;;;5.20;;
5357;SDS011;2702;51.014;7.170;2022-10-17T01:35:51;5.70;;;5.20;;
5357;SDS011;2702;51.014;7.170;2022-10-17T01:38:29;5.63;;;4.80;;
5357;SDS011;2702;51.014;7.170;2022-10-17T01:44:48;5.03;;;4.60;;
5357;SDS011;2702;51.014;7.170;2022-10-17T01:47:11;5.60;;;5.10;;
5357;SDS011;2702;51.014;7.170;2022-10-17T01:49:42;6.10;;;5.27;;
5357;SDS011;2702;51.014;7.170;2022-10-17T01:52:12;5.67;;;5.20;;
5357;SDS011;2702;51.014;7.170;2022-10-17T01:54:47;5.43;;;4.97;;
5357;SDS011;2702;51.014;7.170;2022-10-17T01:57:51;5.60;;;5.20;;
5357;SDS011;2702;51.014;7.170;2022-10-17T02:00:22;6.47;;;4.77;;
5357;SDS011;2702;51.014;7.170;2022-10-17T02:02:55;6.50;;;5.10;;
5357;SDS011;2702;51.014;7.170;2022-10-17T02:05:25;5.40;;;5.00;;
5357;SDS011;2702;51.014;7.170;2022-10-17T02:07:57;5.80;;;5.20;;
5357;SDS011;2702;51.014;7.170;2022-10-17T02:10:45;7.10;;;5.23;;
5357;SDS011;2702;51.014;7.170;2022-10-17T02:18:46;8.27;;;5.40;;
5357;SDS011;2702;51.014;7.170;2022-10-17T02:23:54;5.30;;;4.80;;
5357;SDS011;2702;51.014;7.170;2022-10-17T02:26:25;5.80;;;5.30;;
5357;SDS011;2702;51.014;7.170;2022-10-17T02:29:15;6.10;;;4.80;;
5357;SDS011;2702;51.014;7.170;2022-10-17T02:31:57;6.43;;;4.90;;
5357;SDS011;2702;51.014;7.170;2022-10-17T02:34:35;5.50;;;5.00;;
5357;SDS011;2702;51.014;7.170;2022-10-17T02:37:06;5.73;;;5.13;;
5357;SDS011;2702;51.014;7.170;2022-10-17T02:39:37;5.67;;;5.13;;
5357;SDS011;2702;51.014;7.170;2022-10-17T02:42:06;7.30;;;4.97;;
5357;SDS011;2702;51.014;7.170;2022-10-17T02:44:36;6.33;;;5.83;;
5357;SDS011;2702;51.014;7.170;2022-10-17T02:47:24;8.33;;;5.00;;
5357;SDS011;2702;51.014;7.170;2022-10-17T02:50:00;5.43;;;4.93;;
5357;SDS011;2702;51.014;7.170;2022-10-17T02:55:22;6.50;;;4.77;;
5357;SDS011;2702;51.014;7.170;2022-10-17T02:58:02;8.30;;;5.90;;
5357;SDS011;2702;51.014;7.170;2022-10-17T03:00:36;5.60;;;4.50;;
5357;SDS011;2702;51.014;7.170;2022-10-17T03:03:17;5.03;;;4.53;;
5357;SDS011;2702;51.014;7.170;2022-10-17T03:05:48;5.40;;;4.90;;
5357;SDS011;2702;51.014;7.170;2022-10-17T03:08:15;6.57;;;4.70;;
5357;SDS011;2702;51.014;7.170;2022-10-17T03:10:41;5.50;;;4.87;;
5357;SDS011;2702;51.014;7.170;2022-10-17T03:13:06;9.07;;;5.50;;
5357;SDS011;2702;51.014;7.170;2022-10-17T03:15:32;6.80;;;5.30;;
5357;SDS011;2702;51.014;7.170;2022-10-17T03:17:58;5.50;;;4.87;;
5357;SDS011;2702;51.014;7.170;2022-10-17T03:20:24;5.03;;;4.63;;
5357;SDS011;2702;51.014;7.170;2022-10-17T03:22:50;5.80;;;5.30;;
5357;SDS011;2702;51.014;7.170;2022-10-17T03:25:15;5.90;;;5.17;;
5357;SDS011;2702;51.014;7.170;2022-10-17T03:27:41;5.83;;;5.33;;
5357;SDS011;2702;51.014;7.170;2022-10-17T03:30:07;6.03;;;4.93;;
5357;SDS011;2702;51.014;7.170;2022-10-17T03:32:34;5.87;;;5.37;;
5357;SDS011;2702;51.014;7.170;2022-10-17T03:35:00;5.73;;;4.60;;
5357;SDS011;2702;51.014;7.170;2022-10-17T03:37:26;6.40;;;5.07;;
5357;SDS011;2702;51.014;7.170;2022-10-17T03:39:51;6.10;;;5.50;;
5357;SDS011;2702;51.014;7.170;2022-10-17T03:42:17;6.57;;;4.83;;
5357;SDS011;2702;51.014;7.170;2022-10-17T03:44:43;5.10;;;4.53;;
5357;SDS011;2702;51.014;7.170;2022-10-17T03:47:09;5.10;;;4.60;;
5357;SDS011;2702;51.014;7.170;2022-10-17T03:49:35;5.50;;;5.03;;
5357;SDS011;2702;51.014;7.170;2022-10-17T03:52:00;5.63;;;4.83;;
5357;SDS011;2702;51.014;7.170;2022-10-17T03:54:27;4.90;;;4.50;;
5357;SDS011;2702;51.014;7.170;2022-10-17T03:56:52;7.20;;;4.97;;
5357;SDS011;2702;51.014;7.170;2022-10-17T03:59:18;5.93;;;5.33;;
5357;SDS011;2702;51.014;7.170;2022-10-17T04:01:47;5.43;;;4.80;;
5357;SDS011;2702;51.014;7.170;2022-10-17T04:04:12;5.40;;;5.00;;
5357;SDS011;2702;51.014;7.170;2022-10-17T04:06:38;5.50;;;5.00;;
5357;SDS011;2702;51.014;7.170;2022-10-17T04:09:05;5.17;;;4.73;;
5357;SDS011;2702;51.014;7.170;2022-10-17T04:11:32;5.60;;;5.10;;
5357;SDS011;2702;51.014;7.170;2022-10-17T04:13:58;5.40;;;4.90;;
5357;SDS011;2702;51.014;7.170;2022-10-17T04:16:24;5.97;;;5.47;;
5357;SDS011;2702;51.014;7.170;2022-10-17T04:18:53;9.27;;;5.40;;
5357;SDS011;2702;51.014;7.170;2022-10-17T04:21:21;6.23;;;5.50;;
5357;SDS011;2702;51.014;7.170;2022-10-17T04:23:52;5.30;;;4.90;;
5357;SDS011;2702;51.014;7.170;2022-10-17T04:26:19;4.90;;;4.53;;
5357;SDS011;2702;51.014;7.170;2022-10-17T04:28:44;5.47;;;4.97;;
5357;SDS011;2702;51.014;7.170;2022-10-17T04:31:11;9.87;;;5.47;;
5357;SDS011;2702;51.014;7.170;2022-10-17T04:33:38;5.47;;;4.70;;
5357;SDS011;2702;51.014;7.170;2022-10-17T04:36:06;6.20;;;5.43;;
5357;SDS011;2702;51.014;7.170;2022-10-17T04:38:37;9.60;;;5.60;;
5357;SDS011;2702;51.014;7.170;2022-10-17T04:41:05;6.90;;;4.97;;
5357;SDS011;2702;51.014;7.170;2022-10-17T04:43:34;5.20;;;4.50;;
5357;SDS011;2702;51.014;7.170;2022-10-17T04:46:02;6.80;;;4.87;;
5357;SDS011;2702;51.014;7.170;2022-10-17T04:48:30;5.83;;;5.23;;
5357;SDS011;2702;51.014;7.170;2022-10-17T04:50:57;6.10;;;5.57;;
5357;SDS011;2702;51.014;7.170;2022-10-17T04:53:24;8.83;;;5.37;;
5357;SDS011;2702;51.014;7.170;2022-10-17T04:55:51;6.90;;;4.47;;
5357;SDS011;2702;51.014;7.170;2022-10-17T04:58:17;7.17;;;5.20;;
5357;SDS011;2702;51.014;7.170;2022-10-17T05:00:44;7.47;;;5.30;;
5357;SDS011;2702;51.014;7.170;2022-10-17T05:03:10;6.00;;;5.10;;
5357;SDS011;2702;51.014;7.170;2022-10-17T05:05:36;6.77;;;5.30;;
5357;SDS011;2702;51.014;7.170;2022-10-17T05:08:04;5.97;;;5.37;;
5357;SDS011;2702;51.014;7.170;2022-10-17T05:10:34;6.53;;;5.17;;
5357;SDS011;2702;51.014;7.170;2022-10-17T05:13:02;6.23;;;4.90;;
5357;SDS011;2702;51.014;7.170;2022-10-17T05:15:28;6.00;;;5.40;;
5357;SDS011;2702;51.014;7.170;2022-10-17T05:17:55;9.87;;;5.50;;
5357;SDS011;2702;51.014;7.170;2022-10-17T05:20:21;8.60;;;5.20;;
5357;SDS011;2702;51.014;7.170;2022-10-17T05:22:47;6.33;;;5.10;;
5357;SDS011;2702;51.014;7.170;2022-10-17T05:25:13;9.43;;;5.10;;
5357;SDS011;2702;51.014;7.170;2022-10-17T05:27:39;4.90;;;4.50;;
5357;SDS011;2702;51.014;7.170;2022-10-17T05:30:05;6.37;;;5.33;;
5357;SDS011;2702;51.014;7.170;2022-10-17T05:32:31;7.13;;;5.07;;
5357;SDS011;2702;51.014;7.170;2022-10-17T05:34:57;8.40;;;4.83;;
5357;SDS011;2702;51.014;7.170;2022-10-17T05:37:23;5.43;;;4.93;;
5357;SDS011;2702;51.014;7.170;2022-10-17T05:39:49;6.00;;;5.47;;
5357;SDS011;2702;51.014;7.170;2022-10-17T05:42:15;6.13;;;4.80;;
5357;SDS011;2702;51.014;7.170;2022-10-17T05:44:40;5.30;;;4.90;;
5357;SDS011;2702;51.014;7.170;2022-10-17T05:47:07;5.13;;;4.73;;
5357;SDS011;2702;51.014;7.170;2022-10-17T05:49:33;7.23;;;5.27;;
5357;SDS011;2702;51.014;7.170;2022-10-17T05:51:59;6.03;;;5.53;;
5357;SDS011;2702;51.014;7.170;2022-10-17T05:54:26;6.90;;;5.43;;
5357;SDS011;2702;51.014;7.170;2022-10-17T05:56:52;5.87;;;5.37;;
5357;SDS011;2702;51.014;7.170;2022-10-17T05:59:19;6.70;;;5.13;;
5357;SDS011;2702;51.014;7.170;2022-10-17T06:01:45;8.60;;;5.70;;
5357;SDS011;2702;51.014;7.170;2022-10-17T06:04:11;6.03;;;5.40;;
5357;SDS011;2702;51.014;7.170;2022-10-17T06:06:37;5.97;;;5.23;;
5357;SDS011;2702;51.014;7.170;2022-10-17T06:09:04;5.70;;;4.97;;
5357;SDS011;2702;51.014;7.170;2022-10-17T06:11:32;6.00;;;5.47;;
5357;SDS011;2702;51.014;7.170;2022-10-17T06:13:59;5.73;;;5.27;;
5357;SDS011;2702;51.014;7.170;2022-10-17T06:16:24;6.47;;;5.30;;
5357;SDS011;2702;51.014;7.170;2022-10-17T06:18:50;6.23;;;5.17;;
5357;SDS011;2702;51.014;7.170;2022-10-17T06:21:18;7.80;;;6.10;;
5357;SDS011;2702;51.014;7.170;2022-10-17T06:23:46;7.23;;;5.10;;
5357;SDS011;2702;51.014;7.170;2022-10-17T06:26:12;5.60;;;5.10;;
5357;SDS011;2702;51.014;7.170;2022-10-17T06:28:38;8.23;;;5.03;;
5357;SDS011;2702;51.014;7.170;2022-10-17T06:31:06;7.40;;;5.57;;
5357;SDS011;2702;51.014;7.170;2022-10-17T06:33:33;6.00;;;5.50;;
5357;SDS011;2702;51.014;7.170;2022-10-17T06:35:59;6.17;;;5.67;;
5357;SDS011;2702;51.014;7.170;2022-10-17T06:38:25;6.53;;;5.10;;
5357;SDS011;2702;51.014;7.170;2022-10-17T06:40:51;11.37;;;5.60;;
5357;SDS011;2702;51.014;7.170;2022-10-17T06:43:18;8.23;;;5.07;;
5357;SDS011;2702;51.014;7.170;2022-10-17T06:45:45;5.53;;;4.93;;
5357;SDS011;2702;51.014;7.170;2022-10-17T06:48:11;9.27;;;5.17;;
5357;SDS011;2702;51.014;7.170;2022-10-17T06:50:37;5.83;;;4.90;;
5357;SDS011;2702;51.014;7.170;2022-10-17T06:53:03;5.47;;;5.07;;
5357;SDS011;2702;51.014;7.170;2022-10-17T06:55:30;9.43;;;4.93;;
5357;SDS011;2702;51.014;7.170;2022-10-17T06:57:56;5.57;;;5.07;;
5357;SDS011;2702;51.014;7.170;2022-10-17T07:00:22;5.83;;;4.80;;
5357;SDS011;2702;51.014;7.170;2022-10-17T07:02:50;6.43;;;4.87;;
5357;SDS011;2702;51.014;7.170;2022-10-17T07:05:16;5.27;;;4.73;;
5357;SDS011;2702;51.014;7.170;2022-10-17T07:07:43;5.63;;;4.93;;
5357;SDS011;2702;51.014;7.170;2022-10-17T07:10:10;5.93;;;4.97;;
5357;SDS011;2702;51.014;7.170;2022-10-17T07:12:36;5.63;;;4.67;;
5357;SDS011;2702;51.014;7.170;2022-10-17T07:15:02;6.50;;;5.07;;
5357;SDS011;2702;51.014;7.170;2022-10-17T07:17:29;4.30;;;4.00;;
5357;SDS011;2702;51.014;7.170;2022-10-17T07:19:55;6.23;;;4.93;;
5357;SDS011;2702;51.014;7.170;2022-10-17T07:22:21;7.33;;;4.17;;
5357;SDS011;2702;51.014;7.170;2022-10-17T07:24:47;4.40;;;4.10;;
5357;SDS011;2702;51.014;7.170;2022-10-17T07:27:13;5.77;;;5.23;;
5357;SDS011;2702;51.014;7.170;2022-10-17T07:29:39;4.30;;;4.00;;
5357;SDS011;2702;51.014;7.170;2022-10-17T07:32:05;5.63;;;4.60;;
5357;SDS011;2702;51.014;7.170;2022-10-17T07:34:33;7.60;;;4.40;;
5357;SDS011;2702;51.014;7.170;2022-10-17T07:37:00;4.73;;;4.33;;
5357;SDS011;2702;51.014;7.170;2022-10-17T07:39:26;7.60;;;4.70;;
5357;SDS011;2702;51.014;7.170;2022-10-17T07:41:53;5.43;;;4.60;;
5357;SDS011;2702;51.014;7.170;2022-10-17T07:44:18;7.23;;;4.77;;
5357;SDS011;2702;51.014;7.170;2022-10-17T07:46:44;6.07;;;4.77;;
5357;SDS011;2702;51.014;7.170;2022-10-17T07:49:10;6.13;;;4.80;;
5357;SDS011;2702;51.014;7.170;2022-10-17T07:51:36;5.27;;;4.63;;
5357;SDS011;2702;51.014;7.170;2022-10-17T07:54:03;4.80;;;4.40;;
5357;SDS011;2702;51.014;7.170;2022-10-17T07:56:30;4.90;;;4.50;;
5357;SDS011;2702;51.014;7.170;2022-10-17T07:58:57;6.30;;;4.53;;
5357;SDS011;2702;51.014;7.170;2022-10-17T08:01:23;5.10;;;4.60;;
5357;SDS011;2702;51.014;7.170;2022-10-17T08:03:50;4.80;;;4.37;;
5357;SDS011;2702;51.014;7.170;2022-10-17T08:06:16;6.77;;;4.47;;
5357;SDS011;2702;51.014;7.170;2022-10-17T08:08:42;4.63;;;3.90;;
5357;SDS011;2702;51.014;7.170;2022-10-17T08:11:09;5.43;;;4.93;;
5357;SDS011;2702;51.014;7.170;2022-10-17T08:13:36;6.03;;;4.87;;
5357;SDS011;2702;51.014;7.170;2022-10-17T08:16:04;5.40;;;4.20;;
5357;SDS011;2702;51.014;7.170;2022-10-17T08:18:33;5.83;;;4.63;;
5357;SDS011;2702;51.014;7.170;2022-10-17T08:21:01;5.10;;;4.10;;
5357;SDS011;2702;51.014;7.170;2022-10-17T08:23:32;7.73;;;4.40;;
5357;SDS011;2702;51.014;7.170;2022-10-17T08:26:03;4.50;;;4.10;;
5357;SDS011;2702;51.014;7.170;2022-10-17T08:28:33;10.53;;;4.40;;
5357;SDS011;2702;51.014;7.170;2022-10-17T08:31:06;5.00;;;4.63;;
5357;SDS011;2702;51.014;7.170;2022-10-17T08:33:34;4.50;;;4.10;;
5357;SDS011;2702;51.014;7.170;2022-10-17T08:36:00;7.33;;;4.10;;
5357;SDS011;2702;51.014;7.170;2022-10-17T08:38:28;4.87;;;3.80;;
5357;SDS011;2702;51.014;7.170;2022-10-17T08:40:56;12.13;;;4.47;;
5357;SDS011;2702;51.014;7.170;2022-10-17T08:46:06;4.83;;;3.87;;
5357;SDS011;2702;51.014;7.170;2022-10-17T08:48:35;4.37;;;3.97;;
5357;SDS011;2702;51.014;7.170;2022-10-17T08:51:14;6.87;;;4.13;;
5357;SDS011;2702;51.014;7.170;2022-10-17T08:54:47;5.53;;;4.30;;
5357;SDS011;2702;51.014;7.170;2022-10-17T08:56:45;5.13;;;3.97;;
5357;SDS011;2702;51.014;7.170;2022-10-17T08:59:22;5.23;;;3.93;;
5357;SDS011;2702;51.014;7.170;2022-10-17T09:02:02;4.57;;;3.93;;
5357;SDS011;2702;51.014;7.170;2022-10-17T09:07:16;4.53;;;4.10;;
5357;SDS011;2702;51.014;7.170;2022-10-17T09:09:58;4.63;;;4.13;;
5357;SDS011;2702;51.014;7.170;2022-10-17T09:12:47;4.57;;;4.17;;
5357;SDS011;2702;51.014;7.170;2022-10-17T09:18:14;6.60;;;4.03;;
5357;SDS011;2702;51.014;7.170;2022-10-17T09:25:57;4.97;;;3.90;;
5357;SDS011;2702;51.014;7.170;2022-10-17T09:28:32;4.87;;;4.47;;
5357;SDS011;2702;51.014;7.170;2022-10-17T09:31:05;4.83;;;4.43;;
5357;SDS011;2702;51.014;7.170;2022-10-17T09:33:47;6.43;;;4.23;;
5357;SDS011;2702;51.014;7.170;2022-10-17T09:36:19;5.03;;;3.70;;
5357;SDS011;2702;51.014;7.170;2022-10-17T09:38:47;4.57;;;3.80;;
5357;SDS011;2702;51.014;7.170;2022-10-17T09:41:42;6.40;;;4.37;;
5357;SDS011;2702;51.014;7.170;2022-10-17T09:46:42;5.23;;;4.03;;
5357;SDS011;2702;51.014;7.170;2022-10-17T09:49:34;4.50;;;4.10;;
5357;SDS011;2702;51.014;7.170;2022-10-17T09:52:02;7.23;;;4.20;;
5357;SDS011;2702;51.014;7.170;2022-10-17T09:54:53;6.27;;;4.10;;
5357;SDS011;2702;51.014;7.170;2022-10-17T09:57:22;4.23;;;3.83;;
5357;SDS011;2702;51.014;7.170;2022-10-17T10:02:24;8.40;;;4.00;;
5357;SDS011;2702;51.014;7.170;2022-10-17T10:04:52;4.37;;;3.97;;
5357;SDS011;2702;51.014;7.170;2022-10-17T10:07:20;3.97;;;3.67;;
5357;SDS011;2702;51.014;7.170;2022-10-17T10:09:47;7.63;;;3.90;;
5357;SDS011;2702;51.014;7.170;2022-10-17T10:12:19;3.67;;;3.37;;
5357;SDS011;2702;51.014;7.170;2022-10-17T10:14:52;4.67;;;4.23;;
5357;SDS011;2702;51.014;7.170;2022-10-17T10:19:51;6.33;;;3.97;;
5357;SDS011;2702;51.014;7.170;2022-10-17T10:22:18;5.43;;;3.50;;
5357;SDS011;2702;51.014;7.170;2022-10-17T10:27:31;5.40;;;3.67;;
5357;SDS011;2702;51.014;7.170;2022-10-17T10:29:58;4.07;;;3.63;;
5357;SDS011;2702;51.014;7.170;2022-10-17T10:32:25;4.17;;;3.87;;
5357;SDS011;2702;51.014;7.170;2022-10-17T10:35:00;4.13;;;3.80;;
5357;SDS011;2702;51.014;7.170;2022-10-17T10:37:45;3.60;;;3.30;;
5357;SDS011;2702;51.014;7.170;2022-10-17T10:42:54;7.90;;;3.90;;
5357;SDS011;2702;51.014;7.170;2022-10-17T10:45:23;4.27;;;3.87;;
5357;SDS011;2702;51.014;7.170;2022-10-17T10:48:00;4.10;;;3.70;;
5357;SDS011;2702;51.014;7.170;2022-10-17T10:50:38;5.70;;;3.87;;
5357;SDS011;2702;51.014;7.170;2022-10-17T10:56:25;4.27;;;3.87;;
5357;SDS011;2702;51.014;7.170;2022-10-17T11:04:06;5.57;;;3.93;;
5357;SDS011;2702;51.014;7.170;2022-10-17T11:06:48;3.70;;;3.40;;
5357;SDS011;2702;51.014;7.170;2022-10-17T11:12:03;4.13;;;3.77;;
5357;SDS011;2702;51.014;7.170;2022-10-17T11:22:31;5.13;;;3.57;;
5357;SDS011;2702;51.014;7.170;2022-10-17T11:25:12;5.73;;;3.83;;
5357;SDS011;2702;51.014;7.170;2022-10-17T11:27:57;7.10;;;3.87;;
5357;SDS011;2702;51.014;7.170;2022-10-17T11:30:23;4.60;;;4.10;;
5357;SDS011;2702;51.014;7.170;2022-10-17T11:32:58;3.97;;;3.60;;
5357;SDS011;2702;51.014;7.170;2022-10-17T11:35:26;5.33;;;3.77;;
5357;SDS011;2702;51.014;7.170;2022-10-17T11:38:15;6.40;;;3.87;;
5357;SDS011;2702;51.014;7.170;2022-10-17T11:41:07;4.50;;;4.10;;
5357;SDS011;2702;51.014;7.170;2022-10-17T11:43:43;5.23;;;3.83;;
5357;SDS011;2702;51.014;7.170;2022-10-17T11:46:17;4.67;;;3.73;;
5357;SDS011;2702;51.014;7.170;2022-10-17T11:52:41;4.27;;;3.97;;
5357;SDS011;2702;51.014;7.170;2022-10-17T11:54:50;5.97;;;4.20;;
5357;SDS011;2702;51.014;7.170;2022-10-17T12:17:04;7.13;;;3.83;;
5357;SDS011;2702;51.014;7.170;2022-10-17T12:19:46;8.17;;;3.90;;
5357;SDS011;2702;51.014;7.170;2022-10-17T12:22:24;6.20;;;4.10;;
5357;SDS011;2702;51.014;7.170;2022-10-17T12:24:53;4.60;;;4.30;;
5357;SDS011;2702;51.014;7.170;2022-10-17T12:27:30;6.03;;;3.53;;
5357;SDS011;2702;51.014;7.170;2022-10-17T12:29:58;7.47;;;4.37;;
5357;SDS011;2702;51.014;7.170;2022-10-17T12:32:27;7.03;;;4.70;;
5357;SDS011;2702;51.014;7.170;2022-10-17T12:34:53;4.50;;;4.10;;
5357;SDS011;2702;51.014;7.170;2022-10-17T12:51:09;6.53;;;4.37;;
5357;SDS011;2702;51.014;7.170;2022-10-17T12:53:40;4.50;;;4.20;;
5357;SDS011;2702;51.014;7.170;2022-10-17T12:56:11;6.53;;;4.43;;
5357;SDS011;2702;51.014;7.170;2022-10-17T12:58:43;8.73;;;5.30;;
5357;SDS011;2702;51.014;7.170;2022-10-17T13:01:14;4.40;;;3.97;;
5357;SDS011;2702;51.014;7.170;2022-10-17T13:03:46;4.93;;;4.00;;
5357;SDS011;2702;51.014;7.170;2022-10-17T13:06:32;5.07;;;4.57;;
5357;SDS011;2702;51.014;7.170;2022-10-17T13:09:06;9.50;;;5.20;;
5357;SDS011;2702;51.014;7.170;2022-10-17T13:11:39;4.80;;;4.50;;
5357;SDS011;2702;51.014;7.170;2022-10-17T13:14:09;5.63;;;4.60;;
5357;SDS011;2702;51.014;7.170;2022-10-17T13:16:38;5.57;;;4.60;;
5357;SDS011;2702;51.014;7.170;2022-10-17T13:19:17;5.23;;;4.53;;
5357;SDS011;2702;51.014;7.170;2022-10-17T13:21:57;8.97;;;4.60;;
5357;SDS011;2702;51.014;7.170;2022-10-17T13:24:33;4.30;;;3.90;;
5357;SDS011;2702;51.014;7.170;2022-10-17T13:27:01;7.33;;;4.63;;
5357;SDS011;2702;51.014;7.170;2022-10-17T13:29:28;4.77;;;4.30;;
5357;SDS011;2702;51.014;7.170;2022-10-17T13:31:59;5.00;;;4.07;;
5357;SDS011;2702;51.014;7.170;2022-10-17T13:34:28;8.40;;;5.20;;
5357;SDS011;2702;51.014;7.170;2022-10-17T13:36:56;4.77;;;4.17;;
5357;SDS011;2702;51.014;7.170;2022-10-17T13:39:32;4.80;;;4.37;;
5357;SDS011;2702;51.014;7.170;2022-10-17T13:42:02;5.43;;;4.93;;
5357;SDS011;2702;51.014;7.170;2022-10-17T13:44:32;5.37;;;4.43;;
5357;SDS011;2702;51.014;7.170;2022-10-17T13:46:59;5.70;;;4.60;;
5357;SDS011;2702;51.014;7.170;2022-10-17T13:49:38;5.53;;;4.73;;
5357;SDS011;2702;51.014;7.170;2022-10-17T13:52:06;6.90;;;4.40;;
5357;SDS011;2702;51.014;7.170;2022-10-17T13:54:43;5.80;;;4.07;;
5357;SDS011;2702;51.014;7.170;2022-10-17T13:57:25;5.20;;;4.70;;
5357;SDS011;2702;51.014;7.170;2022-10-17T14:02:39;7.23;;;5.70;;
5357;SDS011;2702;51.014;7.170;2022-10-17T14:05:18;5.93;;;5.40;;
5357;SDS011;2702;51.014;7.170;2022-10-17T14:07:52;6.07;;;5.47;;
5357;SDS011;2702;51.014;7.170;2022-10-17T14:10:29;5.60;;;5.10;;
5357;SDS011;2702;51.014;7.170;2022-10-17T14:12:58;8.13;;;4.83;;
5357;SDS011;2702;51.014;7.170;2022-10-17T14:15:27;5.20;;;4.70;;
5357;SDS011;2702;51.014;7.170;2022-10-17T14:17:55;6.40;;;4.93;;
5357;SDS011;2702;51.014;7.170;2022-10-17T14:20:32;4.97;;;4.47;;
5357;SDS011;2702;51.014;7.170;2022-10-17T14:22:58;5.37;;;4.83;;
5357;SDS011;2702;51.014;7.170;2022-10-17T14:25:26;6.53;;;4.87;;
5357;SDS011;2702;51.014;7.170;2022-10-17T14:27:55;5.53;;;4.70;;
5357;SDS011;2702;51.014;7.170;2022-10-17T14:30:46;5.50;;;5.00;;
5357;SDS011;2702;51.014;7.170;2022-10-17T14:33:22;5.33;;;4.70;;
5357;SDS011;2702;51.014;7.170;2022-10-17T14:35:51;5.30;;;4.83;;
5357;SDS011;2702;51.014;7.170;2022-10-17T14:38:19;7.93;;;5.13;;
5357;SDS011;2702;51.014;7.170;2022-10-17T14:41:47;7.60;;;5.37;;
5357;SDS011;2702;51.014;7.170;2022-10-17T14:43:56;5.20;;;4.77;;
5357;SDS011;2702;51.014;7.170;2022-10-17T14:46:25;7.17;;;5.47;;
5357;SDS011;2702;51.014;7.170;2022-10-17T14:48:54;5.90;;;5.40;;
5357;SDS011;2702;51.014;7.170;2022-10-17T14:51:23;6.47;;;4.57;;
5357;SDS011;2702;51.014;7.170;2022-10-17T14:53:59;5.50;;;5.00;;
5357;SDS011;2702;51.014;7.170;2022-10-17T14:56:49;5.57;;;4.63;;
5357;SDS011;2702;51.014;7.170;2022-10-17T14:59:16;6.60;;;5.00;;
5357;SDS011;2702;51.014;7.170;2022-10-17T15:01:49;7.90;;;4.87;;
5357;SDS011;2702;51.014;7.170;2022-10-17T15:04:16;5.37;;;4.10;;
5357;SDS011;2702;51.014;7.170;2022-10-17T15:06:42;4.77;;;3.90;;
5357;SDS011;2702;51.014;7.170;2022-10-17T15:09:10;6.33;;;4.00;;
5357;SDS011;2702;51.014;7.170;2022-10-17T15:11:36;5.40;;;3.80;;
5357;SDS011;2702;51.014;7.170;2022-10-17T15:14:02;6.50;;;3.73;;
5357;SDS011;2702;51.014;7.170;2022-10-17T15:16:31;6.43;;;3.77;;
5357;SDS011;2702;51.014;7.170;2022-10-17T15:18:58;4.63;;;4.00;;
5357;SDS011;2702;51.014;7.170;2022-10-17T15:21:26;4.20;;;3.33;;
5357;SDS011;2702;51.014;7.170;2022-10-17T15:23:53;6.10;;;3.57;;
5357;SDS011;2702;51.014;7.170;2022-10-17T15:26:25;4.90;;;4.07;;
5357;SDS011;2702;51.014;7.170;2022-10-17T15:28:55;6.60;;;4.07;;
5357;SDS011;2702;51.014;7.170;2022-10-17T15:31:22;6.33;;;3.73;;
5357;SDS011;2702;51.014;7.170;2022-10-17T15:33:50;6.93;;;3.60;;
5357;SDS011;2702;51.014;7.170;2022-10-17T15:36:20;8.37;;;4.17;;
5357;SDS011;2702;51.014;7.170;2022-10-17T15:38:59;5.07;;;4.23;;
5357;SDS011;2702;51.014;7.170;2022-10-17T15:41:27;6.90;;;3.50;;
5357;SDS011;2702;51.014;7.170;2022-10-17T15:43:54;6.33;;;3.70;;
5357;SDS011;2702;51.014;7.170;2022-10-17T15:46:24;5.00;;;3.17;;
5357;SDS011;2702;51.014;7.170;2022-10-17T15:48:56;7.40;;;3.70;;
5357;SDS011;2702;51.014;7.170;2022-10-17T15:51:27;6.07;;;3.80;;
5357;SDS011;2702;51.014;7.170;2022-10-17T15:53:53;4.53;;;3.70;;
5357;SDS011;2702;51.014;7.170;2022-10-17T15:56:22;5.30;;;3.73;;
5357;SDS011;2702;51.014;7.170;2022-10-17T15:58:51;8.33;;;3.70;;
5357;SDS011;2702;51.014;7.170;2022-10-17T16:01:19;4.60;;;3.80;;
5357;SDS011;2702;51.014;7.170;2022-10-17T16:03:47;6.60;;;3.87;;
5357;SDS011;2702;51.014;7.170;2022-10-17T16:06:14;5.93;;;3.30;;
5357;SDS011;2702;51.014;7.170;2022-10-17T16:08:47;3.63;;;3.17;;
5357;SDS011;2702;51.014;7.170;2022-10-17T16:11:32;6.27;;;3.30;;
5357;SDS011;2702;51.014;7.170;2022-10-17T16:14:03;7.63;;;3.20;;
5357;SDS011;2702;51.014;7.170;2022-10-17T16:16:31;5.63;;;3.37;;
5357;SDS011;2702;51.014;7.170;2022-10-17T16:18:58;4.77;;;3.10;;
5357;SDS011;2702;51.014;7.170;2022-10-17T16:21:26;9.53;;;3.33;;
5357;SDS011;2702;51.014;7.170;2022-10-17T16:23:54;6.47;;;3.70;;
5357;SDS011;2702;51.014;7.170;2022-10-17T16:26:20;7.27;;;3.83;;
5357;SDS011;2702;51.014;7.170;2022-10-17T16:28:46;8.33;;;3.33;;
5357;SDS011;2702;51.014;7.170;2022-10-17T16:31:19;7.60;;;4.13;;
5357;SDS011;2702;51.014;7.170;2022-10-17T16:33:51;4.93;;;3.40;;
5357;SDS011;2702;51.014;7.170;2022-10-17T16:36:18;6.00;;;3.93;;
5357;SDS011;2702;51.014;7.170;2022-10-17T16:38:45;6.07;;;3.70;;
5357;SDS011;2702;51.014;7.170;2022-10-17T16:41:19;9.17;;;4.00;;
5357;SDS011;2702;51.014;7.170;2022-10-17T16:43:48;4.90;;;4.50;;
5357;SDS011;2702;51.014;7.170;2022-10-17T16:46:15;8.37;;;4.80;;
5357;SDS011;2702;51.014;7.170;2022-10-17T16:48:42;6.47;;;4.70;;
5357;SDS011;2702;51.014;7.170;2022-10-17T16:51:09;5.80;;;4.63;;
5357;SDS011;2702;51.014;7.170;2022-10-17T16:53:36;14.90;;;5.70;;
5357;SDS011;2702;51.014;7.170;2022-10-17T16:56:16;5.57;;;5.07;;
5357;SDS011;2702;51.014;7.170;2022-10-17T16:58:44;6.00;;;4.60;;
5357;SDS011;2702;51.014;7.170;2022-10-17T17:01:11;8.23;;;5.20;;
5357;SDS011;2702;51.014;7.170;2022-10-17T17:03:40;6.30;;;4.90;;
5357;SDS011;2702;51.014;7.170;2022-10-17T17:06:07;7.10;;;5.17;;
5357;SDS011;2702;51.014;7.170;2022-10-17T17:08:36;5.63;;;4.40;;
5357;SDS011;2702;51.014;7.170;2022-10-17T17:11:02;7.17;;;5.23;;
5357;SDS011;2702;51.014;7.170;2022-10-17T17:13:32;10.17;;;5.33;;
5357;SDS011;2702;51.014;7.170;2022-10-17T17:16:05;6.80;;;4.67;;
5357;SDS011;2702;51.014;7.170;2022-10-17T17:18:33;6.50;;;5.33;;
5357;SDS011;2702;51.014;7.170;2022-10-17T17:20:59;5.77;;;5.27;;